sensor_id;sensor_type;location;lat;lon;timestamp;P1;durP1;ratioP1;P2;durP2;ratioP2
4961;SDS011;2496;52.468;13.342;2022-12-20T00:00:25;28.10;;;13.53;;
4961;SDS011;2496;52.468;13.342;2022-12-20T00:02:52;30.37;;;15.60;;
4961;SDS011;2496;52.468;13.342;2022-12-20T00:05:19;27.60;;;13.70;;
4961;SDS011;2496;52.468;13.342;2022-12-20T00:07:49;27.57;;;15.63;;
4961;SDS011;2496;52.468;13.342;2022-12-20T00:10:18;35.80;;;14.93;;
4961;SDS011;2496;52.468;13.342;2022-12-20T00:12:45;26.10;;;14.00;;
4961;SDS011;2496;52.468;13.342;2022-12-20T00:15:14;28.67;;;14.10;;
4961;SDS011;2496;52.468;13.342;2022-12-20T00:17:41;26.00;;;14.30;;
4961;SDS011;2496;52.468;13.342;2022-12-20T00:20:08;27.47;;;14.37;;
4961;SDS011;2496;52.468;13.342;2022-12-20T00:22:38;26.53;;;13.50;;
4961;SDS011;2496;52.468;13.342;2022-12-20T00:25:14;28.70;;;14.40;;
4961;SDS011;2496;52.468;13.342;2022-12-20T00:27:51;24.67;;;12.90;;
4961;SDS011;2496;52.468;13.342;2022-12-20T00:30:20;27.83;;;15.10;;
4961;SDS011;2496;52.468;13.342;2022-12-20T00:32:47;29.10;;;14.53;;
4961;SDS011;2496;52.468;13.342;2022-12-20T00:35:14;28.27;;;13.73;;
4961;SDS011;2496;52.468;13.342;2022-12-20T00:37:44;28.37;;;15.17;;
4961;SDS011;2496;52.468;13.342;2022-12-20T00:40:11;23.80;;;12.97;;
4961;SDS011;2496;52.468;13.342;2022-12-20T00:42:38;29.37;;;14.20;;
4961;SDS011;2496;52.468;13.342;2022-12-20T00:45:06;23.70;;;12.30;;
4961;SDS011;2496;52.468;13.342;2022-12-20T00:47:35;25.73;;;13.03;;
4961;SDS011;2496;52.468;13.342;2022-12-20T00:50:02;23.57;;;14.17;;
4961;SDS011;2496;52.468;13.342;2022-12-20T00:52:29;27.50;;;13.03;;
4961;SDS011;2496;52.468;13.342;2022-12-20T00:54:57;26.07;;;13.20;;
4961;SDS011;2496;52.468;13.342;2022-12-20T00:57:24;27.23;;;13.33;;
4961;SDS011;2496;52.468;13.342;2022-12-20T00:59:51;23.70;;;12.53;;
4961;SDS011;2496;52.468;13.342;2022-12-20T01:02:18;22.27;;;13.30;;
4961;SDS011;2496;52.468;13.342;2022-12-20T01:04:48;25.20;;;12.00;;
4961;SDS011;2496;52.468;13.342;2022-12-20T01:07:15;24.33;;;13.07;;
4961;SDS011;2496;52.468;13.342;2022-12-20T01:09:43;28.90;;;13.50;;
4961;SDS011;2496;52.468;13.342;2022-12-20T01:12:10;26.87;;;13.43;;
4961;SDS011;2496;52.468;13.342;2022-12-20T01:14:37;23.70;;;14.10;;
4961;SDS011;2496;52.468;13.342;2022-12-20T01:17:04;25.33;;;12.80;;
4961;SDS011;2496;52.468;13.342;2022-12-20T01:19:31;27.07;;;13.77;;
4961;SDS011;2496;52.468;13.342;2022-12-20T01:22:00;20.40;;;12.73;;
4961;SDS011;2496;52.468;13.342;2022-12-20T01:24:27;24.20;;;11.73;;
4961;SDS011;2496;52.468;13.342;2022-12-20T01:26:54;31.77;;;14.37;;
4961;SDS011;2496;52.468;13.342;2022-12-20T01:29:21;26.50;;;12.33;;
4961;SDS011;2496;52.468;13.342;2022-12-20T01:31:48;24.77;;;12.77;;
4961;SDS011;2496;52.468;13.342;2022-12-20T01:34:15;24.20;;;11.70;;
4961;SDS011;2496;52.468;13.342;2022-12-20T01:36:42;20.27;;;12.40;;
4961;SDS011;2496;52.468;13.342;2022-12-20T01:39:13;23.23;;;11.80;;
4961;SDS011;2496;52.468;13.342;2022-12-20T01:41:41;23.10;;;12.17;;
4961;SDS011;2496;52.468;13.342;2022-12-20T01:47:10;18.90;;;11.90;;
4961;SDS011;2496;52.468;13.342;2022-12-20T01:49:38;23.40;;;12.30;;
4961;SDS011;2496;52.468;13.342;2022-12-20T01:52:12;18.30;;;11.10;;
4961;SDS011;2496;52.468;13.342;2022-12-20T01:54:43;22.73;;;11.60;;
4961;SDS011;2496;52.468;13.342;2022-12-20T01:57:15;22.37;;;11.67;;
4961;SDS011;2496;52.468;13.342;2022-12-20T01:59:46;22.43;;;12.00;;
4961;SDS011;2496;52.468;13.342;2022-12-20T02:02:15;21.20;;;12.63;;
4961;SDS011;2496;52.468;13.342;2022-12-20T02:04:43;16.00;;;10.50;;
4961;SDS011;2496;52.468;13.342;2022-12-20T02:07:10;20.37;;;11.07;;
4961;SDS011;2496;52.468;13.342;2022-12-20T02:09:44;24.00;;;12.37;;
4961;SDS011;2496;52.468;13.342;2022-12-20T02:12:13;22.93;;;11.80;;
4961;SDS011;2496;52.468;13.342;2022-12-20T02:14:43;20.17;;;11.33;;
4961;SDS011;2496;52.468;13.342;2022-12-20T02:17:27;28.43;;;11.90;;
4961;SDS011;2496;52.468;13.342;2022-12-20T02:23:10;23.27;;;11.70;;
4961;SDS011;2496;52.468;13.342;2022-12-20T02:25:54;21.10;;;11.57;;
4961;SDS011;2496;52.468;13.342;2022-12-20T02:28:38;22.27;;;11.90;;
4961;SDS011;2496;52.468;13.342;2022-12-20T02:31:19;20.77;;;10.33;;
4961;SDS011;2496;52.468;13.342;2022-12-20T02:33:51;18.30;;;11.30;;
4961;SDS011;2496;52.468;13.342;2022-12-20T02:36:21;21.60;;;11.47;;
4961;SDS011;2496;52.468;13.342;2022-12-20T02:38:49;25.60;;;11.77;;
4961;SDS011;2496;52.468;13.342;2022-12-20T02:41:17;16.50;;;10.00;;
4961;SDS011;2496;52.468;13.342;2022-12-20T02:43:47;19.37;;;11.40;;
4961;SDS011;2496;52.468;13.342;2022-12-20T02:46:37;26.80;;;10.97;;
4961;SDS011;2496;52.468;13.342;2022-12-20T02:49:06;25.77;;;11.70;;
4961;SDS011;2496;52.468;13.342;2022-12-20T02:51:36;24.03;;;12.27;;
4961;SDS011;2496;52.468;13.342;2022-12-20T02:54:05;19.60;;;11.03;;
4961;SDS011;2496;52.468;13.342;2022-12-20T02:56:32;17.20;;;11.27;;
4961;SDS011;2496;52.468;13.342;2022-12-20T02:59:04;18.33;;;10.43;;
4961;SDS011;2496;52.468;13.342;2022-12-20T03:01:35;19.33;;;10.40;;
4961;SDS011;2496;52.468;13.342;2022-12-20T03:04:06;20.83;;;10.83;;
4961;SDS011;2496;52.468;13.342;2022-12-20T03:06:34;24.53;;;12.00;;
4961;SDS011;2496;52.468;13.342;2022-12-20T03:09:01;21.93;;;11.50;;
4961;SDS011;2496;52.468;13.342;2022-12-20T03:11:28;20.93;;;10.73;;
4961;SDS011;2496;52.468;13.342;2022-12-20T03:13:55;19.70;;;11.80;;
4961;SDS011;2496;52.468;13.342;2022-12-20T03:16:22;19.60;;;11.27;;
4961;SDS011;2496;52.468;13.342;2022-12-20T03:18:50;26.43;;;12.60;;
4961;SDS011;2496;52.468;13.342;2022-12-20T03:21:17;31.33;;;12.30;;
4961;SDS011;2496;52.468;13.342;2022-12-20T03:23:44;21.20;;;11.40;;
4961;SDS011;2496;52.468;13.342;2022-12-20T03:26:11;21.77;;;11.60;;
4961;SDS011;2496;52.468;13.342;2022-12-20T03:28:38;24.03;;;10.90;;
4961;SDS011;2496;52.468;13.342;2022-12-20T03:31:05;17.80;;;9.83;;
4961;SDS011;2496;52.468;13.342;2022-12-20T03:33:33;18.50;;;10.90;;
4961;SDS011;2496;52.468;13.342;2022-12-20T03:36:01;25.43;;;11.47;;
4961;SDS011;2496;52.468;13.342;2022-12-20T03:38:28;20.70;;;11.53;;
4961;SDS011;2496;52.468;13.342;2022-12-20T03:40:55;18.20;;;10.80;;
4961;SDS011;2496;52.468;13.342;2022-12-20T03:43:22;21.47;;;12.27;;
4961;SDS011;2496;52.468;13.342;2022-12-20T03:45:49;18.07;;;10.67;;
4961;SDS011;2496;52.468;13.342;2022-12-20T03:48:16;19.03;;;11.07;;
4961;SDS011;2496;52.468;13.342;2022-12-20T03:50:43;21.63;;;12.13;;
4961;SDS011;2496;52.468;13.342;2022-12-20T03:53:11;22.20;;;11.70;;
4961;SDS011;2496;52.468;13.342;2022-12-20T03:55:38;18.93;;;10.83;;
4961;SDS011;2496;52.468;13.342;2022-12-20T03:58:06;20.63;;;11.77;;
4961;SDS011;2496;52.468;13.342;2022-12-20T04:00:32;20.53;;;11.40;;
4961;SDS011;2496;52.468;13.342;2022-12-20T04:02:59;25.17;;;13.70;;
4961;SDS011;2496;52.468;13.342;2022-12-20T04:05:26;19.80;;;11.27;;
4961;SDS011;2496;52.468;13.342;2022-12-20T04:07:53;17.73;;;10.37;;
4961;SDS011;2496;52.468;13.342;2022-12-20T04:10:22;18.50;;;10.40;;
4961;SDS011;2496;52.468;13.342;2022-12-20T04:12:49;18.20;;;11.70;;
4961;SDS011;2496;52.468;13.342;2022-12-20T04:15:16;22.00;;;11.80;;
4961;SDS011;2496;52.468;13.342;2022-12-20T04:17:43;18.50;;;10.30;;
4961;SDS011;2496;52.468;13.342;2022-12-20T04:20:13;19.60;;;10.90;;
4961;SDS011;2496;52.468;13.342;2022-12-20T04:22:44;20.90;;;12.13;;
4961;SDS011;2496;52.468;13.342;2022-12-20T04:25:15;20.00;;;11.00;;
4961;SDS011;2496;52.468;13.342;2022-12-20T04:27:45;18.27;;;11.20;;
4961;SDS011;2496;52.468;13.342;2022-12-20T04:30:12;19.27;;;11.40;;
4961;SDS011;2496;52.468;13.342;2022-12-20T04:32:39;21.87;;;10.60;;
4961;SDS011;2496;52.468;13.342;2022-12-20T04:35:07;17.53;;;10.80;;
4961;SDS011;2496;52.468;13.342;2022-12-20T04:37:34;24.57;;;10.97;;
4961;SDS011;2496;52.468;13.342;2022-12-20T04:40:01;19.47;;;10.13;;
4961;SDS011;2496;52.468;13.342;2022-12-20T04:42:28;19.00;;;11.30;;
4961;SDS011;2496;52.468;13.342;2022-12-20T04:44:57;15.20;;;8.70;;
4961;SDS011;2496;52.468;13.342;2022-12-20T04:47:24;22.90;;;11.60;;
4961;SDS011;2496;52.468;13.342;2022-12-20T04:49:51;22.53;;;10.63;;
4961;SDS011;2496;52.468;13.342;2022-12-20T04:52:18;17.33;;;10.70;;
4961;SDS011;2496;52.468;13.342;2022-12-20T04:55:02;22.70;;;10.30;;
4961;SDS011;2496;52.468;13.342;2022-12-20T04:57:29;19.83;;;9.90;;
4961;SDS011;2496;52.468;13.342;2022-12-20T04:59:58;16.90;;;8.90;;
4961;SDS011;2496;52.468;13.342;2022-12-20T05:02:25;17.63;;;10.40;;
4961;SDS011;2496;52.468;13.342;2022-12-20T05:04:52;18.70;;;11.17;;
4961;SDS011;2496;52.468;13.342;2022-12-20T05:07:19;20.77;;;11.50;;
4961;SDS011;2496;52.468;13.342;2022-12-20T05:09:45;19.30;;;10.90;;
4961;SDS011;2496;52.468;13.342;2022-12-20T05:12:12;23.20;;;11.17;;
4961;SDS011;2496;52.468;13.342;2022-12-20T05:14:39;20.87;;;10.57;;
4961;SDS011;2496;52.468;13.342;2022-12-20T05:17:08;15.90;;;10.60;;
4961;SDS011;2496;52.468;13.342;2022-12-20T05:19:35;17.43;;;9.73;;
4961;SDS011;2496;52.468;13.342;2022-12-20T05:22:02;21.63;;;11.37;;
4961;SDS011;2496;52.468;13.342;2022-12-20T05:24:46;17.13;;;10.20;;
4961;SDS011;2496;52.468;13.342;2022-12-20T05:27:33;22.20;;;11.47;;
4961;SDS011;2496;52.468;13.342;2022-12-20T05:30:01;20.40;;;12.03;;
4961;SDS011;2496;52.468;13.342;2022-12-20T05:32:29;17.90;;;10.30;;
4961;SDS011;2496;52.468;13.342;2022-12-20T05:35:00;18.73;;;10.47;;
4961;SDS011;2496;52.468;13.342;2022-12-20T05:37:26;20.20;;;11.10;;
4961;SDS011;2496;52.468;13.342;2022-12-20T05:39:53;18.27;;;11.07;;
4961;SDS011;2496;52.468;13.342;2022-12-20T05:42:20;20.50;;;11.80;;
4961;SDS011;2496;52.468;13.342;2022-12-20T05:44:47;20.57;;;11.10;;
4961;SDS011;2496;52.468;13.342;2022-12-20T05:47:15;19.23;;;11.47;;
4961;SDS011;2496;52.468;13.342;2022-12-20T05:49:44;22.00;;;12.40;;
4961;SDS011;2496;52.468;13.342;2022-12-20T05:52:10;19.20;;;10.50;;
4961;SDS011;2496;52.468;13.342;2022-12-20T05:54:37;18.37;;;10.90;;
4961;SDS011;2496;52.468;13.342;2022-12-20T05:57:05;25.83;;;11.53;;
4961;SDS011;2496;52.468;13.342;2022-12-20T05:59:32;21.47;;;11.77;;
4961;SDS011;2496;52.468;13.342;2022-12-20T06:01:59;23.97;;;11.90;;
4961;SDS011;2496;52.468;13.342;2022-12-20T06:04:26;19.90;;;11.90;;
4961;SDS011;2496;52.468;13.342;2022-12-20T06:06:55;23.67;;;12.27;;
4961;SDS011;2496;52.468;13.342;2022-12-20T06:09:22;20.10;;;10.97;;
4961;SDS011;2496;52.468;13.342;2022-12-20T06:11:49;20.80;;;11.23;;
4961;SDS011;2496;52.468;13.342;2022-12-20T06:14:16;16.63;;;10.40;;
4961;SDS011;2496;52.468;13.342;2022-12-20T06:16:43;22.70;;;11.97;;
4961;SDS011;2496;52.468;13.342;2022-12-20T06:19:10;20.63;;;11.27;;
4961;SDS011;2496;52.468;13.342;2022-12-20T06:21:38;19.37;;;11.07;;
4961;SDS011;2496;52.468;13.342;2022-12-20T06:24:06;21.10;;;12.30;;
4961;SDS011;2496;52.468;13.342;2022-12-20T06:26:34;21.33;;;11.47;;
4961;SDS011;2496;52.468;13.342;2022-12-20T06:29:01;25.67;;;12.57;;
4961;SDS011;2496;52.468;13.342;2022-12-20T06:31:28;20.47;;;13.00;;
4961;SDS011;2496;52.468;13.342;2022-12-20T06:33:55;22.37;;;11.70;;
4961;SDS011;2496;52.468;13.342;2022-12-20T06:36:22;15.87;;;10.97;;
4961;SDS011;2496;52.468;13.342;2022-12-20T06:38:49;23.50;;;12.53;;
4961;SDS011;2496;52.468;13.342;2022-12-20T06:41:17;21.57;;;12.47;;
4961;SDS011;2496;52.468;13.342;2022-12-20T06:43:44;20.07;;;12.37;;
4961;SDS011;2496;52.468;13.342;2022-12-20T06:46:11;19.23;;;10.87;;
4961;SDS011;2496;52.468;13.342;2022-12-20T06:48:38;24.53;;;12.00;;
4961;SDS011;2496;52.468;13.342;2022-12-20T06:51:05;20.20;;;12.33;;
4961;SDS011;2496;52.468;13.342;2022-12-20T06:53:32;19.97;;;12.10;;
4961;SDS011;2496;52.468;13.342;2022-12-20T06:55:59;21.43;;;12.63;;
4961;SDS011;2496;52.468;13.342;2022-12-20T06:58:27;20.90;;;11.67;;
4961;SDS011;2496;52.468;13.342;2022-12-20T07:00:54;20.40;;;12.20;;
4961;SDS011;2496;52.468;13.342;2022-12-20T07:03:21;21.00;;;12.53;;
4961;SDS011;2496;52.468;13.342;2022-12-20T07:05:50;21.57;;;13.37;;
4961;SDS011;2496;52.468;13.342;2022-12-20T07:08:18;22.37;;;12.33;;
4961;SDS011;2496;52.468;13.342;2022-12-20T07:10:45;25.67;;;13.10;;
4961;SDS011;2496;52.468;13.342;2022-12-20T07:13:12;23.90;;;13.17;;
4961;SDS011;2496;52.468;13.342;2022-12-20T07:15:40;24.17;;;14.03;;
4961;SDS011;2496;52.468;13.342;2022-12-20T07:18:07;19.40;;;10.90;;
4961;SDS011;2496;52.468;13.342;2022-12-20T07:20:34;22.20;;;13.50;;
4961;SDS011;2496;52.468;13.342;2022-12-20T07:23:02;20.53;;;12.77;;
4961;SDS011;2496;52.468;13.342;2022-12-20T07:25:29;22.40;;;12.33;;
4961;SDS011;2496;52.468;13.342;2022-12-20T07:27:56;21.10;;;13.00;;
4961;SDS011;2496;52.468;13.342;2022-12-20T07:30:23;22.13;;;13.33;;
4961;SDS011;2496;52.468;13.342;2022-12-20T07:32:52;21.70;;;12.30;;
4961;SDS011;2496;52.468;13.342;2022-12-20T07:35:19;21.03;;;13.37;;
4961;SDS011;2496;52.468;13.342;2022-12-20T07:37:46;22.87;;;14.10;;
4961;SDS011;2496;52.468;13.342;2022-12-20T07:40:13;25.03;;;13.80;;
4961;SDS011;2496;52.468;13.342;2022-12-20T07:42:41;27.50;;;13.80;;
4961;SDS011;2496;52.468;13.342;2022-12-20T07:45:08;29.13;;;15.00;;
4961;SDS011;2496;52.468;13.342;2022-12-20T07:47:35;23.70;;;13.77;;
4961;SDS011;2496;52.468;13.342;2022-12-20T07:50:05;25.60;;;14.30;;
4961;SDS011;2496;52.468;13.342;2022-12-20T07:52:33;25.27;;;13.40;;
4961;SDS011;2496;52.468;13.342;2022-12-20T07:55:02;26.63;;;14.03;;
4961;SDS011;2496;52.468;13.342;2022-12-20T07:57:33;20.57;;;13.63;;
4961;SDS011;2496;52.468;13.342;2022-12-20T08:00:04;27.30;;;13.63;;
4961;SDS011;2496;52.468;13.342;2022-12-20T08:02:34;19.77;;;13.37;;
4961;SDS011;2496;52.468;13.342;2022-12-20T08:05:06;25.80;;;14.20;;
4961;SDS011;2496;52.468;13.342;2022-12-20T08:07:34;24.60;;;14.17;;
4961;SDS011;2496;52.468;13.342;2022-12-20T08:10:03;24.13;;;13.60;;
4961;SDS011;2496;52.468;13.342;2022-12-20T08:12:32;23.10;;;14.00;;
4961;SDS011;2496;52.468;13.342;2022-12-20T08:14:59;24.87;;;14.53;;
4961;SDS011;2496;52.468;13.342;2022-12-20T08:17:26;24.67;;;14.07;;
4961;SDS011;2496;52.468;13.342;2022-12-20T08:19:53;27.53;;;15.40;;
4961;SDS011;2496;52.468;13.342;2022-12-20T08:22:23;31.00;;;14.87;;
4961;SDS011;2496;52.468;13.342;2022-12-20T08:24:50;33.07;;;16.13;;
4961;SDS011;2496;52.468;13.342;2022-12-20T08:27:17;26.80;;;13.83;;
4961;SDS011;2496;52.468;13.342;2022-12-20T08:29:44;29.57;;;16.30;;
4961;SDS011;2496;52.468;13.342;2022-12-20T08:32:10;29.00;;;15.73;;
4961;SDS011;2496;52.468;13.342;2022-12-20T08:34:38;26.90;;;15.40;;
4961;SDS011;2496;52.468;13.342;2022-12-20T08:37:05;23.10;;;13.80;;
4961;SDS011;2496;52.468;13.342;2022-12-20T08:39:33;23.97;;;14.07;;
4961;SDS011;2496;52.468;13.342;2022-12-20T08:42:03;30.50;;;15.00;;
4961;SDS011;2496;52.468;13.342;2022-12-20T08:44:30;28.87;;;15.27;;
4961;SDS011;2496;52.468;13.342;2022-12-20T08:46:57;30.10;;;15.53;;
4961;SDS011;2496;52.468;13.342;2022-12-20T08:49:24;25.40;;;14.50;;
4961;SDS011;2496;52.468;13.342;2022-12-20T08:51:51;27.70;;;15.90;;
4961;SDS011;2496;52.468;13.342;2022-12-20T08:54:18;25.47;;;14.80;;
4961;SDS011;2496;52.468;13.342;2022-12-20T08:56:46;27.87;;;17.07;;
4961;SDS011;2496;52.468;13.342;2022-12-20T08:59:13;34.27;;;15.00;;
4961;SDS011;2496;52.468;13.342;2022-12-20T09:01:40;29.13;;;15.20;;
4961;SDS011;2496;52.468;13.342;2022-12-20T09:04:08;26.97;;;14.77;;
4961;SDS011;2496;52.468;13.342;2022-12-20T09:06:36;30.80;;;15.83;;
4961;SDS011;2496;52.468;13.342;2022-12-20T09:09:03;23.60;;;14.90;;
4961;SDS011;2496;52.468;13.342;2022-12-20T09:11:31;27.47;;;14.10;;
4961;SDS011;2496;52.468;13.342;2022-12-20T09:14:00;20.07;;;14.93;;
4961;SDS011;2496;52.468;13.342;2022-12-20T09:16:28;29.27;;;15.23;;
4961;SDS011;2496;52.468;13.342;2022-12-20T09:18:56;24.23;;;15.13;;
4961;SDS011;2496;52.468;13.342;2022-12-20T09:21:24;34.30;;;15.47;;
4961;SDS011;2496;52.468;13.342;2022-12-20T09:23:52;24.73;;;15.07;;
4961;SDS011;2496;52.468;13.342;2022-12-20T09:26:20;37.27;;;15.50;;
4961;SDS011;2496;52.468;13.342;2022-12-20T09:28:49;23.67;;;15.07;;
4961;SDS011;2496;52.468;13.342;2022-12-20T09:31:19;29.13;;;14.73;;
4961;SDS011;2496;52.468;13.342;2022-12-20T09:33:47;30.07;;;16.10;;
4961;SDS011;2496;52.468;13.342;2022-12-20T09:36:15;26.80;;;14.90;;
4961;SDS011;2496;52.468;13.342;2022-12-20T09:38:44;22.00;;;13.83;;
4961;SDS011;2496;52.468;13.342;2022-12-20T09:41:18;23.87;;;15.83;;
4961;SDS011;2496;52.468;13.342;2022-12-20T09:43:49;33.73;;;16.37;;
4961;SDS011;2496;52.468;13.342;2022-12-20T09:46:18;29.47;;;15.83;;
4961;SDS011;2496;52.468;13.342;2022-12-20T09:48:45;30.03;;;14.80;;
4961;SDS011;2496;52.468;13.342;2022-12-20T09:51:16;30.50;;;17.30;;
4961;SDS011;2496;52.468;13.342;2022-12-20T09:53:54;22.70;;;13.70;;
4961;SDS011;2496;52.468;13.342;2022-12-20T09:56:30;25.90;;;14.27;;
4961;SDS011;2496;52.468;13.342;2022-12-20T09:59:02;27.57;;;14.50;;
4961;SDS011;2496;52.468;13.342;2022-12-20T10:01:32;28.57;;;17.07;;
4961;SDS011;2496;52.468;13.342;2022-12-20T10:04:01;26.50;;;14.83;;
4961;SDS011;2496;52.468;13.342;2022-12-20T10:06:34;29.50;;;13.47;;
4961;SDS011;2496;52.468;13.342;2022-12-20T10:09:12;24.50;;;13.27;;
4961;SDS011;2496;52.468;13.342;2022-12-20T10:11:53;23.10;;;13.97;;
4961;SDS011;2496;52.468;13.342;2022-12-20T10:14:31;21.60;;;12.90;;
4961;SDS011;2496;52.468;13.342;2022-12-20T10:17:11;22.47;;;12.73;;
4961;SDS011;2496;52.468;13.342;2022-12-20T10:19:51;25.07;;;13.67;;
4961;SDS011;2496;52.468;13.342;2022-12-20T10:22:29;20.10;;;12.33;;
4961;SDS011;2496;52.468;13.342;2022-12-20T10:25:10;21.57;;;12.20;;
4961;SDS011;2496;52.468;13.342;2022-12-20T10:27:41;20.97;;;12.47;;
4961;SDS011;2496;52.468;13.342;2022-12-20T10:30:11;23.13;;;12.77;;
4961;SDS011;2496;52.468;13.342;2022-12-20T10:32:42;22.77;;;12.40;;
4961;SDS011;2496;52.468;13.342;2022-12-20T10:35:21;22.37;;;12.10;;
4961;SDS011;2496;52.468;13.342;2022-12-20T10:37:55;25.57;;;14.57;;
4961;SDS011;2496;52.468;13.342;2022-12-20T10:40:25;18.03;;;10.70;;
4961;SDS011;2496;52.468;13.342;2022-12-20T10:42:54;21.43;;;13.00;;
4961;SDS011;2496;52.468;13.342;2022-12-20T10:45:32;22.10;;;12.73;;
4961;SDS011;2496;52.468;13.342;2022-12-20T10:48:04;26.67;;;14.30;;
4961;SDS011;2496;52.468;13.342;2022-12-20T10:50:32;20.77;;;12.17;;
4961;SDS011;2496;52.468;13.342;2022-12-20T10:53:20;23.17;;;12.20;;
4961;SDS011;2496;52.468;13.342;2022-12-20T10:55:48;26.33;;;11.30;;
4961;SDS011;2496;52.468;13.342;2022-12-20T10:58:16;21.20;;;12.87;;
4961;SDS011;2496;52.468;13.342;2022-12-20T11:01:01;24.67;;;12.50;;
4961;SDS011;2496;52.468;13.342;2022-12-20T11:03:31;18.67;;;10.17;;
4961;SDS011;2496;52.468;13.342;2022-12-20T11:05:59;21.83;;;12.40;;
4961;SDS011;2496;52.468;13.342;2022-12-20T11:08:29;22.33;;;10.67;;
4961;SDS011;2496;52.468;13.342;2022-12-20T11:11:09;19.77;;;11.50;;
4961;SDS011;2496;52.468;13.342;2022-12-20T11:13:38;24.73;;;11.03;;
4961;SDS011;2496;52.468;13.342;2022-12-20T11:16:08;23.40;;;12.43;;
4961;SDS011;2496;52.468;13.342;2022-12-20T11:21:56;19.13;;;11.77;;
4961;SDS011;2496;52.468;13.342;2022-12-20T11:24:30;24.30;;;10.87;;
4961;SDS011;2496;52.468;13.342;2022-12-20T11:27:06;25.43;;;12.90;;
4961;SDS011;2496;52.468;13.342;2022-12-20T11:32:51;19.00;;;12.13;;
4961;SDS011;2496;52.468;13.342;2022-12-20T11:35:35;20.80;;;12.10;;
4961;SDS011;2496;52.468;13.342;2022-12-20T11:38:11;22.07;;;12.77;;
4961;SDS011;2496;52.468;13.342;2022-12-20T11:40:48;18.70;;;11.43;;
4961;SDS011;2496;52.468;13.342;2022-12-20T11:43:22;21.70;;;12.47;;
4961;SDS011;2496;52.468;13.342;2022-12-20T11:46:04;19.40;;;11.27;;
4961;SDS011;2496;52.468;13.342;2022-12-20T11:48:51;21.13;;;12.60;;
4961;SDS011;2496;52.468;13.342;2022-12-20T11:51:37;20.10;;;11.63;;
4961;SDS011;2496;52.468;13.342;2022-12-20T11:54:11;22.93;;;11.87;;
4961;SDS011;2496;52.468;13.342;2022-12-20T11:56:45;26.73;;;11.53;;
4961;SDS011;2496;52.468;13.342;2022-12-20T11:59:18;20.83;;;11.10;;
4961;SDS011;2496;52.468;13.342;2022-12-20T12:01:54;18.33;;;11.50;;
4961;SDS011;2496;52.468;13.342;2022-12-20T12:04:29;20.73;;;10.90;;
4961;SDS011;2496;52.468;13.342;2022-12-20T12:07:03;24.77;;;11.40;;
4961;SDS011;2496;52.468;13.342;2022-12-20T12:09:34;19.90;;;10.27;;
4961;SDS011;2496;52.468;13.342;2022-12-20T12:12:05;22.27;;;11.70;;
4961;SDS011;2496;52.468;13.342;2022-12-20T12:14:45;19.27;;;11.33;;
4961;SDS011;2496;52.468;13.342;2022-12-20T12:17:19;23.63;;;10.50;;
4961;SDS011;2496;52.468;13.342;2022-12-20T12:19:51;20.73;;;13.07;;
4961;SDS011;2496;52.468;13.342;2022-12-20T12:22:23;20.13;;;10.53;;
4961;SDS011;2496;52.468;13.342;2022-12-20T12:24:58;22.37;;;10.80;;
4961;SDS011;2496;52.468;13.342;2022-12-20T12:27:29;16.43;;;10.27;;
4961;SDS011;2496;52.468;13.342;2022-12-20T12:29:56;20.33;;;10.77;;
4961;SDS011;2496;52.468;13.342;2022-12-20T12:32:25;16.23;;;10.80;;
4961;SDS011;2496;52.468;13.342;2022-12-20T12:35:02;22.07;;;11.60;;
4961;SDS011;2496;52.468;13.342;2022-12-20T12:37:44;21.50;;;13.17;;
4961;SDS011;2496;52.468;13.342;2022-12-20T12:40:39;21.60;;;12.63;;
4961;SDS011;2496;52.468;13.342;2022-12-20T12:46:15;27.23;;;10.80;;
4961;SDS011;2496;52.468;13.342;2022-12-20T12:48:45;18.20;;;11.00;;
4961;SDS011;2496;52.468;13.342;2022-12-20T12:51:20;18.67;;;10.53;;
4961;SDS011;2496;52.468;13.342;2022-12-20T12:54:00;15.93;;;10.27;;
4961;SDS011;2496;52.468;13.342;2022-12-20T12:56:30;23.43;;;12.13;;
4961;SDS011;2496;52.468;13.342;2022-12-20T12:59:08;18.73;;;11.20;;
4961;SDS011;2496;52.468;13.342;2022-12-20T13:01:46;20.63;;;10.67;;
4961;SDS011;2496;52.468;13.342;2022-12-20T13:04:27;23.23;;;10.93;;
4961;SDS011;2496;52.468;13.342;2022-12-20T13:06:58;16.87;;;10.87;;
4961;SDS011;2496;52.468;13.342;2022-12-20T13:09:38;18.80;;;11.07;;
4961;SDS011;2496;52.468;13.342;2022-12-20T13:18:22;21.33;;;10.67;;
4961;SDS011;2496;52.468;13.342;2022-12-20T13:27:02;20.00;;;11.40;;
4961;SDS011;2496;52.468;13.342;2022-12-20T13:32:54;22.93;;;11.33;;
4961;SDS011;2496;52.468;13.342;2022-12-20T13:35:47;22.93;;;12.67;;
4961;SDS011;2496;52.468;13.342;2022-12-20T13:38:38;19.03;;;11.20;;
4961;SDS011;2496;52.468;13.342;2022-12-20T13:44:27;27.40;;;12.50;;
4961;SDS011;2496;52.468;13.342;2022-12-20T13:47:02;21.93;;;12.27;;
4961;SDS011;2496;52.468;13.342;2022-12-20T13:49:44;20.57;;;10.80;;
4961;SDS011;2496;52.468;13.342;2022-12-20T13:52:14;16.60;;;11.20;;
4961;SDS011;2496;52.468;13.342;2022-12-20T13:54:47;18.13;;;13.20;;
4961;SDS011;2496;52.468;13.342;2022-12-20T13:57:18;18.17;;;11.50;;
4961;SDS011;2496;52.468;13.342;2022-12-20T13:59:54;21.60;;;12.30;;
4961;SDS011;2496;52.468;13.342;2022-12-20T14:02:25;19.70;;;10.90;;
4961;SDS011;2496;52.468;13.342;2022-12-20T14:04:56;20.87;;;12.10;;
4961;SDS011;2496;52.468;13.342;2022-12-20T14:07:25;29.13;;;12.27;;
4961;SDS011;2496;52.468;13.342;2022-12-20T14:09:55;22.70;;;12.00;;
4961;SDS011;2496;52.468;13.342;2022-12-20T14:12:25;26.30;;;12.20;;
4961;SDS011;2496;52.468;13.342;2022-12-20T14:14:54;20.07;;;10.80;;
4961;SDS011;2496;52.468;13.342;2022-12-20T14:17:22;21.50;;;11.50;;
4961;SDS011;2496;52.468;13.342;2022-12-20T14:20:04;24.23;;;11.93;;
4961;SDS011;2496;52.468;13.342;2022-12-20T14:22:37;19.47;;;11.63;;
4961;SDS011;2496;52.468;13.342;2022-12-20T14:25:08;18.80;;;12.10;;
4961;SDS011;2496;52.468;13.342;2022-12-20T14:27:41;18.73;;;11.53;;
4961;SDS011;2496;52.468;13.342;2022-12-20T14:33:02;19.83;;;12.80;;
4961;SDS011;2496;52.468;13.342;2022-12-20T14:35:29;20.57;;;11.73;;
4961;SDS011;2496;52.468;13.342;2022-12-20T14:37:57;22.90;;;12.70;;
4961;SDS011;2496;52.468;13.342;2022-12-20T14:40:25;19.30;;;11.30;;
4961;SDS011;2496;52.468;13.342;2022-12-20T14:42:54;26.60;;;12.93;;
4961;SDS011;2496;52.468;13.342;2022-12-20T14:45:22;19.20;;;12.60;;
4961;SDS011;2496;52.468;13.342;2022-12-20T14:47:56;19.90;;;12.43;;
4961;SDS011;2496;52.468;13.342;2022-12-20T14:50:28;27.60;;;13.17;;
4961;SDS011;2496;52.468;13.342;2022-12-20T14:52:57;25.83;;;13.20;;
4961;SDS011;2496;52.468;13.342;2022-12-20T14:55:31;21.87;;;12.83;;
4961;SDS011;2496;52.468;13.342;2022-12-20T14:58:00;22.90;;;13.30;;
4961;SDS011;2496;52.468;13.342;2022-12-20T15:00:32;20.63;;;12.50;;
4961;SDS011;2496;52.468;13.342;2022-12-20T15:03:01;27.20;;;14.43;;
4961;SDS011;2496;52.468;13.342;2022-12-20T15:05:43;24.13;;;13.93;;
4961;SDS011;2496;52.468;13.342;2022-12-20T15:08:13;21.83;;;12.40;;
4961;SDS011;2496;52.468;13.342;2022-12-20T15:10:46;26.33;;;14.60;;
4961;SDS011;2496;52.468;13.342;2022-12-20T15:13:19;21.60;;;12.83;;
4961;SDS011;2496;52.468;13.342;2022-12-20T15:15:48;24.63;;;13.60;;
4961;SDS011;2496;52.468;13.342;2022-12-20T15:18:17;26.47;;;13.63;;
4961;SDS011;2496;52.468;13.342;2022-12-20T15:20:47;33.33;;;13.50;;
4961;SDS011;2496;52.468;13.342;2022-12-20T15:23:18;27.43;;;14.37;;
4961;SDS011;2496;52.468;13.342;2022-12-20T15:25:46;27.53;;;13.90;;
4961;SDS011;2496;52.468;13.342;2022-12-20T15:28:15;27.60;;;13.80;;
4961;SDS011;2496;52.468;13.342;2022-12-20T15:30:43;27.17;;;14.60;;